METAR Data
IDs: Format: Raw Decoded Include TAF

Data at: 0211 UTC 19 Oct 2021

PAIN 190156Z AUTO VRB04KT 10SM CLR 02/M09 A2960 RMK AO2 SLP054 T00171089 FZRANO
PAIN 190056Z AUTO VRB03KT 10SM CLR 04/M08 A2960 RMK AO2 SLP052 T00391083
PAIN 182356Z AUTO VRB04KT 10SM CLR 04/M08 A2959 RMK AO2 SLP049 T00441083 10050 21061 56011
PAIN 182256Z AUTO 14007KT 100V180 10SM CLR 05/M08 A2960 RMK AO2 SLP051 T00501083
PAIN 182156Z AUTO VRB03KT 10SM CLR 04/M08 A2961 RMK AO2 SLP057 T00391078
PAIN 182056Z AUTO 20003KT 10SM CLR 02/M08 A2963 RMK AO2 SLP062 T00171083 58001 FZRANO
PAIN 181956Z AUTO 21003KT 10SM CLR M01/M07 A2964 RMK AO2 SLP067 T10061072 FZRANO
PAIN 181856Z AUTO 00000KT 10SM CLR M04/M08 A2964 RMK AO2 SLP068 T10391083 FZRANO
PAIN 181756Z AUTO 00000KT 10SM CLR M06/M09 A2963 RMK AO2 SLP067 T10611094 11028 21072 53006 FZRANO
PAIN 181656Z AUTO 24004KT 10SM CLR M07/M09 A2962 RMK AO2 SLP065 T10671094 FZRANO
PAIN 181556Z AUTO 00000KT 10SM CLR M06/M09 A2961 RMK AO2 SLP060 T10561089 FZRANO
PAIN 181456Z AUTO 22003KT 10SM BKN120 M04/M08 A2961 RMK AO2 SLP058 T10441078 53006 FZRANO
PAIN 181356Z AUTO 21004KT 10SM CLR M04/M08 A2960 RMK AO2 SLP055 T10441083 FZRANO
PAIN 181256Z AUTO 24003KT 10SM FEW090 M04/M08 A2958 RMK AO2 SLP049 T10441078 FZRANO
PAIN 181156Z AUTO 00000KT 10SM BKN090 M03/M07 A2959 RMK AO2 SLP050 T10281072 10017 21039 53004 FZRANO
PAIN 181056Z AUTO VRB03KT 10SM CLR M04/M07 A2958 RMK AO2 SLP047 T10391072 FZRANO
PAIN 180956Z AUTO 00000KT 10SM CLR M04/M07 A2958 RMK AO2 SLP047 T10391072 FZRANO
PAIN 180856Z AUTO 26004KT 10SM CLR M02/M06 A2958 RMK AO2 SLP046 T10221061 400281056 53008 FZRANO
PAIN 180756Z AUTO 24003KT 10SM CLR M02/M06 A2957 RMK AO2 SLP043 T10171061 FZRANO
PAIN 180656Z AUTO 23003KT 10SM BKN085 OVC110 00/M06 A2956 RMK AO2 SLP039 T00001061 FZRANO
PAIN 180556Z AUTO 19005KT 10SM OVC095 02/M06 A2955 RMK AO2 SLP036 T00171056 10022 20006 51013 FZRANO
PAIN 180456Z AUTO VRB04KT 10SM OVC090 02/M06 A2954 RMK AO2 SLP032 T00171056 FZRANO
PAIN 180356Z AUTO 19005KT 10SM BKN050 BKN090 OVC120 01/M06 A2953 RMK AO2 SLP029 T00111056 FZRANO
PAIN 180256Z AUTO 15004KT 10SM OVC050 02/M06 A2951 RMK AO2 SLP022 T00171061 53010 FZRANO
PAIN 180156Z AUTO 00000KT 10SM OVC110 02/M06 A2949 RMK AO2 SLP015 T00221056 FZRANO
PAIN 180056Z AUTO 00000KT 10SM FEW100 SCT120 02/M06 A2948 RMK AO2 SLP013 T00221056 FZRANO
PAIN 172356Z AUTO 19004KT 10SM OVC110 02/M06 A2948 RMK AO2 SLP013 T00221056 10028 21022 53004 FZRANO
PAIN 172256Z AUTO 19009G15KT 10SM OVC110 02/M06 A2946 RMK AO2 SLP005 T00221061 FZRANO
PAIN 172156Z AUTO 18007KT 10SM BKN110 02/M07 A2945 RMK AO2 SLP003 T00171067 FZRANO
PAIN 172056Z AUTO 19008KT 10SM FEW120 01/M07 A2947 RMK AO2 SLP011 T00061067 58001 FZRANO
PAIN 171956Z AUTO 19006KT 10SM OVC120 00/M07 A2947 RMK AO2 SLP013 T00001072 FZRANO
PAIN 171856Z AUTO 00000KT 10SM OVC060 M02/M07 A2947 RMK AO2 SLP016 T10171072 FZRANO
PAIN 171756Z AUTO 23003KT 10SM BKN055 M02/M08 A2947 RMK AO2 SLP016 T10221078 11017 21033 58001 FZRANO
PAIN 171656Z AUTO 24003KT 10SM OVC055 M02/M08 A2947 RMK AO2 SLP016 T10221078 FZRANO
PAIN 171556Z AUTO VRB04KT 10SM OVC055 M02/M08 A2948 RMK AO2 SLP017 T10221078 FZRANO
PAIN 171456Z AUTO 18006KT 10SM OVC060 M02/M07 A2947 RMK AO2 SLP015 T10221072 58021 FZRANO